createdAt,value
2022-11-20T00:01:21.223Z,80.11
2022-11-20T00:03:47.995Z,79.69
2022-11-20T00:06:17.668Z,79.70
2022-11-20T00:08:44.530Z,79.81
2022-11-20T00:11:22.838Z,79.86
2022-11-20T00:13:52.274Z,79.77
2022-11-20T00:16:21.288Z,79.92
2022-11-20T00:18:48.166Z,80.09
2022-11-20T00:21:24.554Z,79.74
2022-11-20T00:23:54.964Z,79.57
2022-11-20T00:26:23.682Z,79.61
2022-11-20T00:28:55.674Z,79.27
2022-11-20T00:31:22.827Z,79.56
2022-11-20T00:33:49.286Z,80.02
2022-11-20T00:36:19.008Z,80.23
2022-11-20T00:38:45.934Z,79.99
2022-11-20T00:41:15.130Z,79.94
2022-11-20T00:43:42.248Z,79.63
2022-11-20T00:46:11.759Z,80.11
2022-11-20T00:48:38.182Z,80.15
2022-11-20T00:51:05.189Z,80.11
2022-11-20T00:53:32.291Z,80.59
2022-11-20T00:56:11.014Z,80.67
2022-11-20T00:58:39.557Z,80.33
2022-11-20T01:01:08.904Z,80.69
2022-11-20T01:03:37.708Z,80.92
2022-11-20T01:06:07.031Z,80.81
2022-11-20T01:08:35.915Z,80.98
2022-11-20T01:11:07.992Z,81.28
2022-11-20T01:13:41.300Z,81.24
2022-11-20T01:16:09.839Z,81.13
2022-11-20T01:18:37.727Z,81.42
2022-11-20T01:21:12.753Z,80.91
2022-11-20T01:23:40.939Z,80.73
2022-11-20T01:26:11.942Z,81.04
2022-11-20T01:28:39.425Z,81.38
2022-11-20T01:31:24.279Z,80.83
2022-11-20T01:33:53.218Z,80.71
2022-11-20T01:36:22.116Z,80.52
2022-11-20T01:38:48.909Z,80.67
2022-11-20T01:41:36.537Z,80.66
2022-11-20T01:44:04.831Z,80.83
2022-11-20T01:46:37.753Z,80.68
2022-11-20T01:49:09.057Z,80.29
2022-11-20T01:52:02.474Z,80.69
2022-11-20T01:54:39.519Z,80.49
2022-11-20T01:57:10.466Z,80.81
2022-11-20T01:59:43.141Z,80.61
2022-11-20T02:02:10.088Z,80.54
2022-11-20T02:04:36.714Z,80.39
2022-11-20T02:07:05.908Z,80.66
2022-11-20T02:09:32.503Z,80.73
2022-11-20T02:11:59.755Z,80.27
2022-11-20T02:14:27.131Z,80.17
2022-11-20T02:16:55.768Z,80.42
2022-11-20T02:19:31.528Z,80.23
2022-11-20T02:22:03.349Z,80.43
2022-11-20T02:24:29.898Z,80.15
2022-11-20T02:27:12.390Z,80.16
2022-11-20T02:29:58.859Z,79.94
2022-11-20T02:32:26.828Z,80.23
2022-11-20T02:34:53.626Z,80.24
2022-11-20T02:37:21.157Z,79.90
2022-11-20T02:39:49.770Z,79.71
2022-11-20T02:42:16.531Z,79.48
2022-11-20T02:44:42.965Z,79.51
2022-11-20T02:47:09.419Z,79.18
2022-11-20T02:49:35.987Z,79.42
2022-11-20T02:52:02.438Z,79.23
2022-11-20T02:54:28.950Z,79.35
2022-11-20T02:56:55.406Z,79.32
2022-11-20T02:59:22.203Z,79.36
2022-11-20T03:01:49.060Z,79.71
2022-11-20T03:04:15.542Z,79.20
2022-11-20T03:06:41.969Z,79.22
2022-11-20T03:09:08.434Z,79.47
2022-11-20T03:11:34.869Z,79.16
2022-11-20T03:14:05.436Z,79.00
2022-11-20T03:16:32.670Z,79.09
2022-11-20T03:18:59.710Z,79.22
2022-11-20T03:21:26.198Z,79.15
2022-11-20T03:23:54.952Z,78.86
2022-11-20T03:26:23.743Z,79.28
2022-11-20T03:29:01.123Z,79.72
2022-11-20T03:31:30.402Z,79.87
2022-11-20T03:33:58.782Z,80.11
2022-11-20T03:36:26.232Z,80.40
2022-11-20T03:38:54.754Z,80.27
2022-11-20T03:41:23.577Z,80.52
2022-11-20T03:43:50.671Z,80.48
2022-11-20T03:46:17.410Z,80.34
2022-11-20T03:48:48.746Z,80.95
2022-11-20T03:51:20.797Z,80.68
2022-11-20T03:53:48.479Z,80.89
2022-11-20T03:56:17.489Z,81.01
2022-11-20T03:58:44.568Z,81.21
2022-11-20T04:01:12.499Z,81.07
2022-11-20T04:03:40.140Z,80.80
2022-11-20T04:06:12.838Z,81.02
2022-11-20T04:08:39.762Z,81.18
2022-11-20T04:11:13.203Z,80.95
2022-11-20T04:13:40.597Z,80.92
2022-11-20T04:16:08.426Z,80.96
2022-11-20T04:18:35.250Z,80.78
2022-11-20T04:21:02.131Z,81.25
2022-11-20T04:23:29.102Z,81.21
2022-11-20T04:25:56.011Z,81.51
2022-11-20T04:28:22.446Z,81.61
2022-11-20T04:30:48.889Z,81.68
2022-11-20T04:33:15.332Z,81.63
2022-11-20T04:35:41.826Z,81.59
2022-11-20T04:38:08.254Z,81.50
2022-11-20T04:40:34.710Z,81.70
2022-11-20T04:43:01.150Z,81.86
2022-11-20T04:45:27.593Z,81.14
2022-11-20T04:47:54.055Z,81.15
2022-11-20T04:50:20.502Z,81.29
2022-11-20T04:52:47.005Z,81.67
2022-11-20T04:55:13.551Z,81.69
2022-11-20T04:57:39.979Z,81.46
2022-11-20T05:00:07.131Z,81.43
2022-11-20T05:02:33.814Z,81.34
2022-11-20T05:05:00.263Z,81.14
2022-11-20T05:07:26.742Z,80.93
2022-11-20T05:09:53.316Z,81.21
2022-11-20T05:12:19.729Z,81.49
2022-11-20T05:14:46.161Z,81.41
2022-11-20T05:17:13.014Z,81.20
2022-11-20T05:19:39.497Z,81.53
2022-11-20T05:22:06.270Z,81.55
2022-11-20T05:24:32.716Z,81.70
2022-11-20T05:26:59.159Z,81.88
2022-11-20T05:29:25.590Z,81.62
2022-11-20T05:31:52.023Z,81.80
2022-11-20T05:34:18.472Z,81.42
2022-11-20T05:36:44.930Z,82.12
2022-11-20T05:39:11.414Z,81.99
2022-11-20T05:41:37.868Z,81.66
2022-11-20T05:44:04.586Z,81.69
2022-11-20T05:46:31.071Z,81.89
2022-11-20T05:48:58.709Z,81.78
2022-11-20T05:51:26.371Z,81.61
2022-11-20T05:53:52.825Z,81.50
2022-11-20T05:56:21.397Z,81.58
2022-11-20T05:58:48.685Z,82.14
2022-11-20T06:01:24.795Z,82.08
2022-11-20T06:03:51.951Z,81.91
2022-11-20T06:06:19.771Z,82.15
2022-11-20T06:08:46.805Z,82.23
2022-11-20T06:11:14.630Z,81.90
2022-11-20T06:13:42.951Z,81.80
2022-11-20T06:16:11.142Z,82.13
2022-11-20T06:18:38.081Z,82.28
2022-11-20T06:21:14.280Z,81.90
2022-11-20T06:23:41.736Z,82.05
2022-11-20T06:26:10.965Z,82.39
2022-11-20T06:28:37.530Z,81.53
2022-11-20T06:31:04.966Z,81.76
2022-11-20T06:33:31.671Z,81.44
2022-11-20T06:36:01.690Z,81.50
2022-11-20T06:38:30.668Z,80.75
2022-11-20T06:40:57.394Z,80.94
2022-11-20T06:43:24.757Z,80.82
2022-11-20T06:45:55.628Z,81.10
2022-11-20T06:48:22.987Z,80.80
2022-11-20T06:50:49.608Z,80.93
2022-11-20T06:53:16.257Z,80.81
2022-11-20T06:55:46.968Z,80.74
2022-11-20T06:58:15.049Z,80.82
2022-11-20T07:00:41.578Z,80.88
2022-11-20T07:03:10.137Z,81.21
2022-11-20T07:05:37.228Z,81.48
2022-11-20T07:08:04.242Z,81.52
2022-11-20T07:10:30.722Z,81.68
2022-11-20T07:12:57.189Z,81.46
2022-11-20T07:15:25.363Z,81.79
2022-11-20T07:17:53.283Z,81.76
2022-11-20T07:20:19.785Z,82.37
2022-11-20T07:22:46.210Z,82.05
2022-11-20T07:25:12.697Z,81.88
2022-11-20T07:27:39.133Z,82.01
2022-11-20T07:30:06.176Z,81.85
2022-11-20T07:32:32.611Z,82.12
2022-11-20T07:34:59.057Z,81.96
2022-11-20T07:37:25.532Z,81.93
2022-11-20T07:39:51.985Z,82.20
2022-11-20T07:42:18.425Z,82.07
2022-11-20T07:44:44.915Z,82.02
2022-11-20T07:47:11.329Z,82.17
2022-11-20T07:49:37.769Z,81.98
2022-11-20T07:52:05.273Z,81.53
2022-11-20T07:54:31.979Z,81.78
2022-11-20T07:56:58.410Z,81.53
2022-11-20T07:59:24.910Z,81.75
2022-11-20T08:01:51.451Z,82.01
2022-11-20T08:04:17.951Z,82.28
2022-11-20T08:06:44.397Z,82.07
2022-11-20T08:09:10.840Z,82.37
2022-11-20T08:11:55.854Z,82.19
2022-11-20T08:14:22.300Z,82.24
2022-11-20T08:16:50.221Z,82.25
2022-11-20T08:19:19.712Z,81.88
2022-11-20T08:21:46.629Z,81.95
2022-11-20T08:24:13.087Z,82.10
2022-11-20T08:26:40.887Z,81.98
2022-11-20T08:29:08.245Z,81.77
2022-11-20T08:31:34.867Z,81.81
2022-11-20T08:34:04.938Z,81.73
2022-11-20T08:36:35.639Z,81.86
2022-11-20T08:39:02.271Z,82.19
2022-11-20T08:41:31.642Z,81.76
2022-11-20T08:44:02.887Z,81.72
2022-11-20T08:46:34.827Z,81.80
2022-11-20T08:49:01.238Z,81.76
2022-11-20T08:51:27.797Z,81.55
2022-11-20T08:53:54.227Z,81.45
2022-11-20T08:56:20.705Z,81.33
2022-11-20T08:59:17.960Z,81.30
2022-11-20T09:01:33.867Z,81.07
2022-11-20T09:04:00.843Z,81.21
2022-11-20T09:06:27.314Z,80.95
2022-11-20T09:08:54.783Z,81.03
2022-11-20T09:11:21.831Z,81.14
2022-11-20T09:13:48.379Z,81.19
2022-11-20T09:16:14.857Z,81.05
2022-11-20T09:18:41.331Z,80.87
2022-11-20T09:21:11.711Z,80.76
2022-11-20T09:23:39.671Z,80.72
2022-11-20T09:26:09.794Z,80.45
2022-11-20T09:28:36.516Z,80.28
2022-11-20T09:31:07.394Z,80.66
2022-11-20T09:33:33.996Z,80.42
2022-11-20T09:36:00.469Z,80.24
2022-11-20T09:38:27.000Z,80.36
2022-11-20T09:41:05.751Z,79.82
2022-11-20T09:43:51.513Z,79.34
2022-11-20T09:46:35.611Z,79.60
2022-11-20T09:49:10.582Z,79.57
2022-11-20T09:51:46.125Z,79.25
2022-11-20T09:54:27.598Z,79.36
2022-11-20T09:56:59.968Z,79.00
2022-11-20T09:59:33.920Z,79.12
2022-11-20T10:02:02.928Z,79.38
2022-11-20T10:04:36.676Z,79.11
2022-11-20T10:07:31.729Z,78.83
2022-11-20T10:09:59.390Z,78.25
2022-11-20T10:12:52.292Z,78.86
2022-11-20T10:16:04.219Z,79.02
2022-11-20T10:19:03.111Z,78.62
2022-11-20T10:21:51.062Z,78.37
2022-11-20T10:24:34.616Z,78.87
2022-11-20T10:27:20.864Z,78.66
2022-11-20T10:29:54.382Z,78.39
2022-11-20T10:32:24.380Z,77.82
2022-11-20T10:35:00.909Z,77.90
2022-11-20T10:37:29.914Z,77.36
2022-11-20T10:40:04.588Z,77.75
2022-11-20T10:42:52.087Z,78.13
2022-11-20T10:45:30.401Z,78.41
2022-11-20T10:48:08.937Z,78.16
2022-11-20T10:50:41.159Z,78.26
2022-11-20T10:53:45.715Z,77.75
2022-11-20T10:56:28.730Z,78.19
2022-11-20T10:59:12.881Z,78.41
2022-11-20T11:01:43.599Z,77.87
2022-11-20T11:04:29.358Z,78.21
2022-11-20T11:07:18.983Z,79.00
2022-11-20T11:09:50.418Z,78.84
2022-11-20T11:12:17.242Z,78.05
2022-11-20T11:14:56.057Z,76.98
2022-11-20T11:17:28.394Z,77.69
2022-11-20T11:20:05.477Z,77.40
2022-11-20T11:22:34.302Z,77.84
2022-11-20T11:25:01.631Z,78.32
2022-11-20T11:27:28.503Z,77.56
2022-11-20T11:30:15.001Z,78.47
2022-11-20T11:32:41.447Z,78.26
2022-11-20T11:35:20.927Z,78.25
2022-11-20T11:37:49.190Z,78.18
2022-11-20T11:40:25.672Z,78.03
2022-11-20T11:42:59.899Z,77.91
2022-11-20T11:45:27.052Z,78.11
2022-11-20T11:47:57.421Z,77.74
2022-11-20T11:50:28.673Z,77.45
2022-11-20T11:53:11.287Z,77.14
2022-11-20T11:55:57.800Z,76.32
2022-11-20T11:58:29.937Z,76.32
2022-11-20T12:01:39.389Z,75.25
2022-11-20T12:04:38.533Z,75.49
2022-11-20T12:07:44.888Z,75.32
2022-11-20T12:10:04.600Z,74.35
2022-11-20T12:12:39.822Z,73.74
2022-11-20T12:15:13.723Z,74.39
2022-11-20T12:17:40.211Z,73.63
2022-11-20T12:20:15.762Z,72.94
2022-11-20T12:22:52.619Z,72.41
2022-11-20T12:25:32.089Z,72.96
2022-11-20T12:28:09.583Z,73.97
2022-11-20T12:30:49.555Z,73.72
2022-11-20T12:33:37.220Z,73.22
2022-11-20T12:36:17.341Z,74.21
2022-11-20T12:39:11.865Z,73.42
2022-11-20T12:42:09.274Z,74.53
2022-11-20T12:45:11.161Z,75.04
2022-11-20T12:48:01.860Z,75.63
2022-11-20T12:50:47.581Z,75.79
2022-11-20T12:53:42.512Z,76.55
2022-11-20T12:56:39.481Z,76.44
2022-11-20T12:59:18.039Z,76.95
2022-11-20T13:02:00.754Z,77.75
2022-11-20T13:04:36.322Z,78.14
2022-11-20T13:07:04.885Z,78.40
2022-11-20T13:09:33.534Z,77.87
2022-11-20T13:12:11.886Z,78.21
2022-11-20T13:14:43.140Z,78.24
2022-11-20T13:17:25.369Z,78.51
2022-11-20T13:19:56.986Z,78.57
2022-11-20T13:22:43.594Z,78.41
2022-11-20T13:25:16.171Z,78.86
2022-11-20T13:27:50.035Z,78.81
2022-11-20T13:30:21.915Z,79.10
2022-11-20T13:33:02.373Z,78.46
2022-11-20T13:35:38.149Z,77.79
2022-11-20T13:38:13.790Z,77.48
2022-11-20T13:40:53.596Z,77.65
2022-11-20T13:43:33.643Z,77.83
2022-11-20T13:46:03.450Z,77.98
2022-11-20T13:48:34.013Z,77.60
2022-11-20T13:51:13.903Z,77.84
2022-11-20T13:53:57.754Z,78.29
2022-11-20T13:56:54.784Z,78.04
2022-11-20T13:59:39.538Z,78.37
2022-11-20T14:02:13.872Z,77.73
2022-11-20T14:04:45.684Z,77.41
2022-11-20T14:07:12.425Z,77.60
2022-11-20T14:09:38.967Z,77.71
2022-11-20T14:12:17.729Z,77.23
2022-11-20T14:14:55.425Z,77.58
2022-11-20T14:17:30.731Z,77.95
2022-11-20T14:20:04.202Z,78.06
2022-11-20T14:22:30.981Z,77.87
2022-11-20T14:25:06.483Z,78.24
2022-11-20T14:27:42.024Z,78.30
2022-11-20T14:30:17.487Z,78.21
2022-11-20T14:32:45.974Z,78.40
2022-11-20T14:35:24.903Z,78.79
2022-11-20T14:37:52.057Z,78.82
2022-11-20T14:40:31.209Z,79.23
2022-11-20T14:42:59.236Z,79.61
2022-11-20T14:45:27.205Z,78.92
2022-11-20T14:47:57.273Z,79.44
2022-11-20T14:50:26.185Z,79.31
2022-11-20T14:52:55.247Z,79.67
2022-11-20T14:55:36.944Z,79.38
2022-11-20T14:58:21.112Z,79.56
2022-11-20T15:01:05.549Z,79.38
2022-11-20T15:03:36.228Z,79.88
2022-11-20T15:06:03.332Z,79.57
2022-11-20T15:08:30.204Z,80.30
2022-11-20T15:10:57.050Z,79.99
2022-11-20T15:13:27.000Z,79.69
2022-11-20T15:15:56.082Z,80.18
2022-11-20T15:18:26.819Z,80.16
2022-11-20T15:20:57.091Z,80.44
2022-11-20T15:23:24.219Z,80.91
2022-11-20T15:25:51.069Z,80.89
2022-11-20T15:28:20.405Z,81.08
2022-11-20T15:30:48.930Z,81.01
2022-11-20T15:33:16.891Z,80.88
2022-11-20T15:35:44.009Z,80.76
2022-11-20T15:38:10.770Z,81.08
2022-11-20T15:40:37.540Z,80.42
2022-11-20T15:43:08.224Z,80.61
2022-11-20T15:45:43.677Z,80.81
2022-11-20T15:48:13.669Z,81.07
2022-11-20T15:50:53.529Z,80.87
2022-11-20T15:53:20.046Z,81.08
2022-11-20T15:55:46.566Z,81.00
2022-11-20T15:58:13.030Z,80.70
2022-11-20T16:00:39.698Z,80.70
2022-11-20T16:03:06.243Z,80.87
2022-11-20T16:05:32.836Z,81.25
2022-11-20T16:07:59.409Z,81.69
2022-11-20T16:10:25.909Z,81.38
2022-11-20T16:13:18.498Z,81.66
2022-11-20T16:15:53.687Z,81.30
2022-11-20T16:18:21.801Z,81.42
2022-11-20T16:20:50.206Z,81.28
2022-11-20T16:23:17.559Z,81.14
2022-11-20T16:25:44.475Z,81.13
2022-11-20T16:28:16.116Z,81.01
2022-11-20T16:30:45.769Z,81.32
2022-11-20T16:33:14.710Z,81.18
2022-11-20T16:35:41.706Z,81.47
2022-11-20T16:38:08.219Z,81.83
2022-11-20T16:40:34.690Z,81.00
2022-11-20T16:43:11.664Z,81.37
2022-11-20T16:45:45.215Z,80.92
2022-11-20T16:48:16.709Z,80.90
2022-11-20T16:50:49.009Z,81.19
2022-11-20T16:53:16.001Z,81.29
2022-11-20T16:55:42.457Z,81.12
2022-11-20T16:58:09.329Z,80.99
2022-11-20T17:00:41.307Z,81.32
2022-11-20T17:03:08.407Z,80.99
2022-11-20T17:05:35.551Z,81.17
2022-11-20T17:08:02.365Z,81.57
2022-11-20T17:10:28.917Z,81.59
2022-11-20T17:12:55.341Z,81.81
2022-11-20T17:15:21.810Z,81.42
2022-11-20T17:17:48.242Z,81.98
2022-11-20T17:20:14.740Z,81.69
2022-11-20T17:22:41.181Z,81.57
2022-11-20T17:25:08.033Z,81.33
2022-11-20T17:27:34.476Z,81.15
2022-11-20T17:30:00.923Z,81.36
2022-11-20T17:32:28.184Z,81.38
2022-11-20T17:34:54.658Z,81.20
2022-11-20T17:37:21.123Z,81.24
2022-11-20T17:39:49.079Z,81.27
2022-11-20T17:42:27.790Z,81.00
2022-11-20T17:44:54.278Z,81.30
2022-11-20T17:47:20.724Z,81.43
2022-11-20T17:49:47.175Z,81.25
2022-11-20T17:52:13.649Z,81.45
2022-11-20T17:54:40.118Z,81.25
2022-11-20T17:57:25.293Z,81.02
2022-11-20T17:59:51.736Z,81.62
2022-11-20T18:02:18.191Z,81.74
2022-11-20T18:04:44.893Z,82.03
2022-11-20T18:07:11.379Z,81.66
2022-11-20T18:09:37.864Z,81.53
2022-11-20T18:12:04.690Z,81.67
2022-11-20T18:14:35.991Z,81.76
2022-11-20T18:17:07.326Z,81.82
2022-11-20T18:19:42.353Z,81.70
2022-11-20T18:22:13.160Z,82.01
2022-11-20T18:24:39.900Z,82.53
2022-11-20T18:27:07.888Z,81.95
2022-11-20T18:29:34.363Z,82.25
2022-11-20T18:32:01.410Z,81.83
2022-11-20T18:34:28.162Z,81.81
2022-11-20T18:36:54.585Z,81.87
2022-11-20T18:39:21.742Z,82.11
2022-11-20T18:42:06.507Z,82.14
2022-11-20T18:44:51.647Z,82.23
2022-11-20T18:47:28.258Z,81.75
2022-11-20T18:49:57.188Z,81.37
2022-11-20T18:52:27.055Z,81.59
2022-11-20T18:54:54.260Z,81.37
2022-11-20T18:57:23.012Z,81.75
2022-11-20T18:59:49.617Z,81.78
2022-11-20T19:02:18.743Z,81.70
2022-11-20T19:04:45.379Z,81.56
2022-11-20T19:07:12.254Z,82.04
2022-11-20T19:09:43.217Z,81.71
2022-11-20T19:12:11.388Z,81.78
2022-11-20T19:14:37.982Z,81.69
2022-11-20T19:17:06.742Z,81.83
2022-11-20T19:19:34.177Z,81.53
2022-11-20T19:22:00.696Z,81.49
2022-11-20T19:24:29.799Z,81.91
2022-11-20T19:26:56.354Z,81.95
2022-11-20T19:29:24.657Z,81.65
2022-11-20T19:31:51.402Z,81.87
2022-11-20T19:34:17.837Z,81.88
2022-11-20T19:36:45.014Z,81.88
2022-11-20T19:39:12.169Z,81.66
2022-11-20T19:41:40.324Z,81.80
2022-11-20T19:44:12.466Z,81.66
2022-11-20T19:46:39.751Z,82.07
2022-11-20T19:49:09.973Z,81.99
2022-11-20T19:51:38.335Z,82.01
2022-11-20T19:54:05.490Z,82.09
2022-11-20T19:56:33.127Z,81.97
2022-11-20T19:59:00.245Z,82.25
2022-11-20T20:01:29.357Z,82.20
2022-11-20T20:04:01.220Z,82.32
2022-11-20T20:06:28.464Z,81.84
2022-11-20T20:09:09.665Z,82.64
2022-11-20T20:11:37.164Z,82.47
2022-11-20T20:14:14.893Z,82.67
2022-11-20T20:16:41.939Z,82.71
2022-11-20T20:19:12.033Z,82.89
2022-11-20T20:21:38.506Z,82.67
2022-11-20T20:24:05.378Z,83.01
2022-11-20T20:26:32.597Z,82.91
2022-11-20T20:29:00.986Z,82.77
2022-11-20T20:31:29.133Z,83.21
2022-11-20T20:33:56.387Z,83.13
2022-11-20T20:36:24.204Z,83.44
2022-11-20T20:38:54.892Z,83.50
2022-11-20T20:41:23.567Z,83.71
2022-11-20T20:44:09.263Z,84.08
2022-11-20T20:46:35.822Z,83.89
2022-11-20T20:49:02.276Z,84.01
2022-11-20T20:51:28.718Z,84.01
2022-11-20T20:53:55.688Z,84.27
2022-11-20T20:56:22.258Z,84.04
2022-11-20T20:58:48.718Z,84.12
2022-11-20T21:01:17.778Z,84.42
2022-11-20T21:03:44.647Z,84.36
2022-11-20T21:06:12.130Z,84.00
2022-11-20T21:08:41.073Z,84.27
2022-11-20T21:11:11.083Z,84.30
2022-11-20T21:13:38.866Z,84.18
2022-11-20T21:16:05.644Z,84.12
2022-11-20T21:18:33.480Z,84.24
2022-11-20T21:21:18.950Z,84.11
2022-11-20T21:23:47.149Z,84.26
2022-11-20T21:26:14.398Z,84.21
2022-11-20T21:28:40.870Z,84.51
2022-11-20T21:31:12.412Z,84.59
2022-11-20T21:33:40.972Z,84.85
2022-11-20T21:36:09.004Z,85.01
2022-11-20T21:38:36.004Z,84.86
2022-11-20T21:41:04.375Z,85.06
2022-11-20T21:43:31.241Z,85.09
2022-11-20T21:46:06.787Z,85.19
2022-11-20T21:48:35.018Z,84.77
2022-11-20T21:51:07.272Z,84.65
2022-11-20T21:53:34.402Z,84.81
2022-11-20T21:56:01.869Z,84.98
2022-11-20T21:58:28.302Z,84.88
2022-11-20T22:00:54.957Z,85.13
2022-11-20T22:03:21.920Z,85.10
2022-11-20T22:05:56.505Z,85.14
2022-11-20T22:08:26.786Z,84.83
2022-11-20T22:10:58.439Z,84.66
2022-11-20T22:13:44.515Z,84.93
2022-11-20T22:16:11.617Z,84.88
2022-11-20T22:18:49.220Z,85.09
2022-11-20T22:21:17.337Z,84.68
2022-11-20T22:23:43.769Z,84.32
2022-11-20T22:26:12.492Z,84.53
2022-11-20T22:28:39.997Z,84.55
2022-11-20T22:31:09.171Z,84.66
2022-11-20T22:33:37.478Z,84.70
2022-11-20T22:36:12.463Z,84.82
2022-11-20T22:38:39.814Z,85.01
2022-11-20T22:41:16.568Z,84.85
2022-11-20T22:43:44.212Z,85.20
2022-11-20T22:46:13.340Z,85.48
2022-11-20T22:48:42.674Z,85.57
2022-11-20T22:51:14.700Z,85.80
2022-11-20T22:53:42.805Z,85.61
2022-11-20T22:56:12.402Z,85.59
2022-11-20T22:58:41.157Z,85.63
2022-11-20T23:01:16.056Z,85.84
2022-11-20T23:03:44.966Z,85.77
2022-11-20T23:06:12.806Z,86.19
2022-11-20T23:08:41.456Z,85.74
2022-11-20T23:11:11.111Z,85.56
2022-11-20T23:13:38.353Z,85.86
2022-11-20T23:16:07.959Z,85.31
2022-11-20T23:18:35.033Z,85.41
2022-11-20T23:21:16.104Z,85.13
2022-11-20T23:23:44.031Z,85.50
2022-11-20T23:26:12.764Z,85.96
2022-11-20T23:28:40.674Z,85.75
2022-11-20T23:31:08.535Z,85.69
2022-11-20T23:33:36.855Z,85.49
2022-11-20T23:36:04.485Z,85.82
2022-11-20T23:38:31.033Z,85.73
2022-11-20T23:40:57.788Z,85.73
2022-11-20T23:43:24.242Z,85.63
2022-11-20T23:45:57.410Z,85.65
2022-11-20T23:48:26.335Z,85.30
2022-11-20T23:50:52.966Z,85.37
2022-11-20T23:53:20.502Z,84.90
2022-11-20T23:55:52.847Z,85.14
2022-11-20T23:58:21.240Z,85.15
